Time;durP1;ratioP1;P1;durP2;ratioP2;P2;SDS_P1;SDS_P2;PMS_P1;PMS_P2;Temp;Humidity;BMP_temperature;BMP_pressure;BME280_temperature;BME280_humidity;BME280_pressure;Samples;Min_cycle;Max_cycle;Signal;HPM_P1;HPM_P2
2022/09/15 00:00:11;;;;;;;3.47;2.13;;;16.40;99.90;;;;;;4984955;23;37697;-84
2022/09/15 00:07:54;;;;;;;5.13;1.95;;;16.30;99.90;;;;;;5123445;23;20056;-83
2022/09/15 00:10:34;;;;;;;4.47;2.00;;;16.30;99.90;;;;;;4870185;29;38991;-83
2022/09/15 00:15:37;;;;;;;3.47;2.17;;;16.20;99.90;;;;;;5126367;23;20045;-83
2022/09/15 00:21:05;;;;;;;4.53;2.13;;;16.20;99.90;;;;;;4900705;29;20038;-82
2022/09/15 00:23:31;;;;;;;3.42;2.38;;;16.00;99.90;;;;;;5790843;23;49104;-81
2022/09/15 00:28:42;;;;;;;6.53;3.58;;;15.90;99.90;;;;;;5016026;23;20051;-81
2022/09/15 00:31:13;;;;;;;5.07;3.35;;;15.90;99.90;;;;;;5192095;23;37961;-81
2022/09/15 00:36:39;;;;;;;6.78;4.03;;;15.80;99.90;;;;;;5049649;23;20052;-81
2022/09/15 00:39:12;;;;;;;6.47;4.18;;;15.80;99.90;;;;;;4881818;29;39547;-82
2022/09/15 00:42:07;;;;;;;8.40;4.65;;;15.80;99.90;;;;;;4903133;28;37468;-82
2022/09/15 00:45:24;;;;;;;6.95;4.70;;;15.90;99.90;;;;;;4901362;28;50106;-83
2022/09/15 00:48:50;;;;;;;10.55;5.38;;;15.90;99.90;;;;;;5300905;23;20059;-80
2022/09/15 00:53:56;;;;;;;7.55;4.45;;;16.00;99.90;;;;;;5651808;23;20053;-81
2022/09/15 01:04:29;;;;;;;7.22;4.72;;;15.90;99.90;;;;;;4663688;23;20048;-81
2022/09/15 01:07:01;;;;;;;7.72;5.65;;;15.80;99.90;;;;;;4905942;29;38786;-81
2022/09/15 01:09:38;;;;;;;9.05;5.28;;;15.80;99.90;;;;;;4911107;29;48891;-83
2022/09/15 01:12:05;;;;;;;7.03;5.75;;;15.80;99.90;;;;;;4903334;29;38494;-82
2022/09/15 01:14:31;;;;;;;9.15;5.30;;;15.80;99.90;;;;;;4886014;29;37766;-82
2022/09/15 01:17:06;;;;;;;7.47;6.07;;;15.80;99.90;;;;;;4891368;29;36841;-81
2022/09/15 01:19:58;;;;;;;9.38;5.65;;;15.90;99.90;;;;;;4889826;29;48672;-84
2022/09/15 01:22:40;;;;;;;9.68;6.63;;;15.90;99.90;;;;;;4910420;29;39062;-80
2022/09/15 01:25:27;;;;;;;8.73;5.50;;;15.90;99.90;;;;;;4891856;29;38904;-83
2022/09/15 01:28:31;;;;;;;11.88;5.05;;;15.90;99.90;;;;;;4898634;29;38623;-84
2022/09/15 01:31:27;;;;;;;8.32;5.13;;;15.90;99.90;;;;;;4906062;29;48045;-82
2022/09/15 01:34:19;;;;;;;7.93;4.82;;;16.00;99.90;;;;;;4875879;29;46723;-83
2022/09/15 01:37:00;;;;;;;7.35;4.25;;;16.00;99.90;;;;;;4884533;29;47016;-81
2022/09/15 01:39:38;;;;;;;8.50;4.30;;;16.10;99.90;;;;;;4902572;29;48552;-80
2022/09/15 01:42:08;;;;;;;11.90;4.20;;;16.10;99.90;;;;;;4888139;29;37406;-80
2022/09/15 01:44:45;;;;;;;8.75;3.78;;;16.10;99.90;;;;;;4888768;29;37445;-83
2022/09/15 01:47:14;;;;;;;6.97;3.35;;;16.00;99.90;;;;;;4905091;29;38671;-84
2022/09/15 01:49:50;;;;;;;7.60;3.40;;;16.00;99.90;;;;;;4910571;29;38039;-84
2022/09/15 01:52:19;;;;;;;9.68;3.50;;;16.00;99.90;;;;;;4904566;29;34194;-82
2022/09/15 01:54:49;;;;;;;10.77;3.55;;;16.00;99.90;;;;;;4902868;29;39781;-83
2022/09/15 01:57:20;;;;;;;6.72;3.20;;;15.90;99.90;;;;;;4891212;29;37514;-83
2022/09/15 01:59:48;;;;;;;4.28;2.50;;;15.90;99.90;;;;;;4887412;29;37444;-82
2022/09/15 02:02:19;;;;;;;7.45;3.45;;;15.90;99.90;;;;;;4892425;29;35876;-83
2022/09/15 02:04:54;;;;;;;6.88;2.90;;;15.80;99.90;;;;;;4890480;29;38566;-80
2022/09/15 02:07:35;;;;;;;6.93;2.60;;;15.80;99.90;;;;;;4892002;29;38757;-83
2022/09/15 02:10:11;;;;;;;10.20;2.58;;;15.80;99.90;;;;;;4898328;29;37505;-82
2022/09/15 02:12:37;;;;;;;7.10;2.67;;;15.80;99.90;;;;;;4904846;29;50310;-83
2022/09/15 02:15:11;;;;;;;6.53;3.10;;;15.80;99.90;;;;;;4887620;29;38813;-81
2022/09/15 02:17:44;;;;;;;5.63;2.60;;;15.90;99.90;;;;;;4902097;29;37382;-78
2022/09/15 02:20:22;;;;;;;6.82;2.90;;;16.00;99.90;;;;;;4893442;29;37253;-82
2022/09/15 02:22:58;;;;;;;4.60;2.15;;;16.00;99.90;;;;;;4911438;29;38002;-85
2022/09/15 02:25:30;;;;;;;7.28;2.33;;;16.10;99.90;;;;;;4894977;29;39044;-84
2022/09/15 02:28:03;;;;;;;3.38;1.88;;;16.20;99.90;;;;;;4895743;29;38921;-86
2022/09/15 02:30:31;;;;;;;5.40;2.10;;;16.20;99.90;;;;;;4890483;29;47329;-84
2022/09/15 02:33:05;;;;;;;3.90;2.05;;;16.20;99.90;;;;;;4888832;29;35777;-83
2022/09/15 02:35:34;;;;;;;5.10;1.90;;;16.20;99.90;;;;;;4881059;29;47513;-84
2022/09/15 02:38:04;;;;;;;4.80;1.80;;;16.30;99.90;;;;;;4891435;29;39411;-82
2022/09/15 02:40:31;;;;;;;4.32;1.63;;;16.30;99.90;;;;;;4892394;29;48037;-82
2022/09/15 02:43:00;;;;;;;4.70;2.08;;;16.30;99.90;;;;;;4910257;29;37085;-84
2022/09/15 02:45:29;;;;;;;4.47;1.70;;;16.30;99.90;;;;;;4905980;29;47659;-83
2022/09/15 02:47:56;;;;;;;6.85;1.77;;;16.30;99.90;;;;;;4892759;29;39023;-83
2022/09/15 02:50:27;;;;;;;3.55;1.50;;;16.30;99.90;;;;;;4889673;29;39956;-83
2022/09/15 02:52:53;;;;;;;3.88;1.42;;;16.30;99.90;;;;;;4892542;29;39029;-83
2022/09/15 02:55:20;;;;;;;4.75;1.20;;;16.30;99.90;;;;;;4890399;29;38553;-83
2022/09/15 02:57:46;;;;;;;3.90;1.65;;;16.30;99.90;;;;;;4884548;29;39079;-83
2022/09/15 03:00:14;;;;;;;3.67;1.50;;;16.30;99.90;;;;;;4886139;29;38140;-84
2022/09/15 03:02:47;;;;;;;4.60;1.42;;;16.40;99.90;;;;;;4889499;29;38006;-84
2022/09/15 03:05:15;;;;;;;4.50;1.30;;;16.30;99.90;;;;;;4909578;29;39615;-84
2022/09/15 03:07:42;;;;;;;5.25;1.63;;;16.30;99.90;;;;;;4893089;29;37133;-84
2022/09/15 03:10:10;;;;;;;4.57;1.85;;;16.30;99.90;;;;;;4906824;29;38121;-84
2022/09/15 03:12:38;;;;;;;6.70;2.30;;;16.30;99.90;;;;;;4884777;29;38762;-83
2022/09/15 03:15:05;;;;;;;4.20;1.60;;;16.30;99.90;;;;;;4883426;29;39653;-82
2022/09/15 03:17:36;;;;;;;4.60;1.30;;;16.30;99.90;;;;;;4889972;29;39236;-81
2022/09/15 03:20:04;;;;;;;5.63;1.40;;;16.30;99.90;;;;;;4888752;29;38873;-83
2022/09/15 03:22:31;;;;;;;2.65;1.38;;;16.30;99.90;;;;;;4909759;29;38738;-83
2022/09/15 03:24:57;;;;;;;3.78;1.42;;;16.30;99.90;;;;;;4907885;29;38795;-82
2022/09/15 03:27:23;;;;;;;5.53;2.33;;;16.30;99.90;;;;;;4887563;29;38978;-83
2022/09/15 03:29:49;;;;;;;3.50;1.50;;;16.30;99.90;;;;;;4892638;29;37618;-83
2022/09/15 03:32:15;;;;;;;4.70;1.73;;;16.20;99.90;;;;;;4911244;29;37143;-83
2022/09/15 03:34:42;;;;;;;3.45;1.23;;;16.20;99.90;;;;;;4904691;29;39581;-84
2022/09/15 03:37:08;;;;;;;2.95;1.23;;;16.20;99.90;;;;;;4882502;29;39046;-82
2022/09/15 03:39:34;;;;;;;3.70;1.40;;;16.10;99.90;;;;;;4908419;29;38173;-83
2022/09/15 03:42:00;;;;;;;5.10;1.52;;;16.10;99.90;;;;;;4909624;29;37108;-83
2022/09/15 03:44:26;;;;;;;4.00;1.27;;;16.10;99.90;;;;;;4890571;29;40632;-83
2022/09/15 03:46:52;;;;;;;4.60;1.60;;;16.00;99.90;;;;;;4902238;29;39391;-84
2022/09/15 03:49:18;;;;;;;3.40;1.40;;;15.90;99.90;;;;;;4888222;29;38661;-83
2022/09/15 03:51:44;;;;;;;6.43;1.60;;;15.80;99.90;;;;;;4885727;29;36934;-85
2022/09/15 03:54:11;;;;;;;6.70;1.63;;;15.70;99.90;;;;;;4908663;29;38403;-85
2022/09/15 03:56:37;;;;;;;5.18;1.90;;;15.70;99.90;;;;;;4910937;29;38399;-85
2022/09/15 03:59:04;;;;;;;6.78;1.80;;;15.60;99.90;;;;;;4904577;29;38188;-84
2022/09/15 04:01:31;;;;;;;5.32;1.75;;;15.60;99.90;;;;;;4891042;29;39073;-84
2022/09/15 04:03:57;;;;;;;3.25;1.45;;;15.60;99.90;;;;;;4890695;29;39674;-84
2022/09/15 04:06:25;;;;;;;4.35;1.48;;;15.50;99.90;;;;;;4888244;29;39803;-84
2022/09/15 04:08:52;;;;;;;4.30;1.70;;;15.50;99.90;;;;;;4892818;29;38209;-85
2022/09/15 04:11:20;;;;;;;2.47;1.30;;;15.50;99.90;;;;;;4909080;29;36934;-84
2022/09/15 04:13:47;;;;;;;4.90;1.88;;;15.60;99.90;;;;;;4909592;29;39917;-81
2022/09/15 04:16:16;;;;;;;3.55;1.70;;;15.60;99.90;;;;;;4893990;29;39348;-84
2022/09/15 04:18:45;;;;;;;7.97;1.92;;;15.60;99.90;;;;;;4893110;29;39118;-84
2022/09/15 04:21:14;;;;;;;9.90;1.92;;;15.60;99.90;;;;;;4885937;29;38177;-84
2022/09/15 04:23:41;;;;;;;5.72;1.33;;;15.70;99.90;;;;;;4886720;29;39525;-85
2022/09/15 04:26:17;;;;;;;5.05;1.48;;;15.70;99.90;;;;;;4891031;29;40570;-84
2022/09/15 04:28:43;;;;;;;3.00;1.13;;;15.70;99.90;;;;;;4904462;29;38703;-85
2022/09/15 04:31:12;;;;;;;5.88;1.63;;;15.60;99.90;;;;;;4893433;29;36169;-85
2022/09/15 04:33:40;;;;;;;6.05;1.27;;;15.60;99.90;;;;;;4893435;29;39019;-85
2022/09/15 04:36:15;;;;;;;3.25;1.25;;;15.60;99.90;;;;;;4904227;29;38997;-83
2022/09/15 04:38:42;;;;;;;7.85;1.30;;;15.60;99.90;;;;;;4906676;29;40199;-83
2022/09/15 04:41:08;;;;;;;5.65;1.25;;;15.50;99.90;;;;;;4899183;29;37347;-84
2022/09/15 04:43:38;;;;;;;6.35;1.48;;;15.50;99.90;;;;;;4901214;29;39620;-81
2022/09/15 04:46:05;;;;;;;4.20;1.48;;;15.50;99.90;;;;;;4886368;29;39119;-83
2022/09/15 04:48:31;;;;;;;3.42;1.27;;;15.50;99.90;;;;;;4897510;29;38526;-83
2022/09/15 04:51:03;;;;;;;4.97;1.63;;;15.50;99.90;;;;;;4907504;29;38187;-84
2022/09/15 04:53:30;;;;;;;3.63;1.40;;;15.50;99.90;;;;;;4889018;29;46769;-84
2022/09/15 04:56:09;;;;;;;4.88;1.48;;;15.50;99.90;;;;;;4884962;29;39397;-84
2022/09/15 04:58:40;;;;;;;2.70;1.33;;;15.50;99.90;;;;;;4886479;29;45986;-83
2022/09/15 05:01:15;;;;;;;4.23;1.27;;;15.50;99.90;;;;;;4903653;29;38806;-83
2022/09/15 05:03:43;;;;;;;3.15;1.48;;;15.50;99.90;;;;;;4910754;29;39493;-86
2022/09/15 05:06:12;;;;;;;8.55;1.85;;;15.50;99.90;;;;;;4902505;29;38988;-87
2022/09/15 05:08:38;;;;;;;5.95;2.08;;;15.50;99.90;;;;;;4884537;29;37404;-87
2022/09/15 05:11:07;;;;;;;4.15;1.42;;;15.40;99.90;;;;;;4893885;29;35385;-87
2022/09/15 05:16:27;;;;;;;9.18;2.75;;;15.50;99.90;;;;;;4909323;23;20048;-84
2022/09/15 05:18:59;;;;;;;8.07;2.03;;;15.40;99.90;;;;;;4865193;29;38922;-85
2022/09/15 05:21:26;;;;;;;7.10;1.23;;;15.40;99.90;;;;;;4866807;29;37814;-84
2022/09/15 05:26:51;;;;;;;4.43;1.40;;;15.40;99.90;;;;;;4899534;23;20049;-85
2022/09/15 05:29:17;;;;;;;6.63;1.60;;;15.40;99.90;;;;;;4878479;29;38462;-83
2022/09/15 05:31:43;;;;;;;5.53;1.73;;;15.30;99.90;;;;;;4863458;29;35973;-84
2022/09/15 05:34:10;;;;;;;4.93;1.40;;;15.40;99.90;;;;;;4868230;29;37372;-85
2022/09/15 05:36:36;;;;;;;5.70;1.90;;;15.40;99.90;;;;;;4882883;29;39576;-86
2022/09/15 05:39:02;;;;;;;3.38;1.42;;;15.50;99.90;;;;;;4868414;29;39244;-85
2022/09/15 05:41:28;;;;;;;2.95;1.27;;;15.50;99.90;;;;;;4871484;29;38884;-87
2022/09/15 05:43:56;;;;;;;7.60;1.58;;;15.40;99.90;;;;;;4885777;29;40377;-86
2022/09/15 05:46:24;;;;;;;4.05;1.48;;;15.40;99.90;;;;;;4873071;29;38850;-84
2022/09/15 05:48:53;;;;;;;4.13;1.20;;;15.30;99.90;;;;;;4859043;29;40149;-83
2022/09/15 05:51:20;;;;;;;3.63;1.23;;;15.30;99.90;;;;;;4859201;29;37889;-86
2022/09/15 05:53:46;;;;;;;3.58;1.30;;;15.30;99.90;;;;;;4869984;29;39314;-84
2022/09/15 05:56:14;;;;;;;6.93;1.40;;;15.30;99.90;;;;;;4868567;29;39456;-83
2022/09/15 05:58:43;;;;;;;4.68;1.60;;;15.30;99.90;;;;;;4878246;29;37213;-85
2022/09/15 06:01:29;;;;;;;3.72;1.50;;;15.30;99.90;;;;;;4881622;29;36519;-84
2022/09/15 06:03:57;;;;;;;2.47;1.17;;;15.40;99.90;;;;;;4872607;29;39476;-80
2022/09/15 06:06:25;;;;;;;3.53;1.33;;;15.40;99.90;;;;;;4867239;29;39845;-86
2022/09/15 06:08:55;;;;;;;3.83;1.13;;;15.40;99.90;;;;;;4886176;29;39325;-84
2022/09/15 06:11:24;;;;;;;6.85;1.27;;;15.50;99.90;;;;;;4883588;29;38161;-86
2022/09/15 06:13:50;;;;;;;2.92;1.20;;;15.40;99.90;;;;;;4874869;29;39576;-86
2022/09/15 06:16:21;;;;;;;4.38;1.42;;;15.50;99.90;;;;;;4871647;29;39646;-84
2022/09/15 06:18:49;;;;;;;2.88;1.45;;;15.50;99.90;;;;;;4874679;29;39114;-86
2022/09/15 06:21:21;;;;;;;4.03;1.70;;;15.50;99.90;;;;;;4872063;29;37190;-85
2022/09/15 06:23:58;;;;;;;3.75;1.65;;;15.50;99.90;;;;;;4888558;29;38958;-85
2022/09/15 06:26:26;;;;;;;2.83;1.42;;;15.50;99.90;;;;;;4889531;29;39522;-85
2022/09/15 06:28:58;;;;;;;3.90;1.52;;;15.50;99.90;;;;;;4873581;29;38948;-85
2022/09/15 06:31:26;;;;;;;3.08;1.65;;;15.50;99.90;;;;;;4872836;29;38111;-82
2022/09/15 06:33:54;;;;;;;2.67;1.92;;;15.50;99.90;;;;;;4871871;29;39299;-83
2022/09/15 06:36:23;;;;;;;3.40;1.60;;;15.60;99.90;;;;;;4885698;29;39493;-79
2022/09/15 06:38:50;;;;;;;4.10;1.70;;;15.60;99.90;;;;;;4888976;29;38270;-84
2022/09/15 06:41:16;;;;;;;7.25;1.65;;;15.60;99.90;;;;;;4886360;29;37652;-83
2022/09/15 06:43:43;;;;;;;5.63;1.83;;;15.70;99.90;;;;;;4873049;29;37552;-83
2022/09/15 06:46:12;;;;;;;3.22;1.48;;;15.70;99.90;;;;;;4887395;29;38379;-81
2022/09/15 06:48:42;;;;;;;3.55;1.85;;;15.80;99.90;;;;;;4863076;29;39260;-82
2022/09/15 06:51:11;;;;;;;3.58;1.88;;;15.90;99.90;;;;;;4865189;29;36779;-82
2022/09/15 06:53:38;;;;;;;7.35;1.65;;;16.00;99.90;;;;;;4864713;29;37864;-84
2022/09/15 06:56:16;;;;;;;3.20;1.23;;;16.00;99.90;;;;;;4879038;29;39606;-84
2022/09/15 06:58:43;;;;;;;6.97;1.90;;;16.00;99.90;;;;;;4873407;29;37629;-84
2022/09/15 07:01:19;;;;;;;2.45;1.38;;;16.10;99.90;;;;;;4876210;29;38885;-83
2022/09/15 07:03:45;;;;;;;2.40;1.30;;;16.10;99.90;;;;;;4868035;29;40454;-83
2022/09/15 07:06:13;;;;;;;6.38;1.83;;;16.20;99.90;;;;;;4889922;29;39570;-82
2022/09/15 07:08:40;;;;;;;4.53;1.50;;;16.20;99.90;;;;;;4857464;29;37382;-83
2022/09/15 07:11:07;;;;;;;3.42;1.50;;;16.30;99.90;;;;;;4869424;29;38320;-83
2022/09/15 07:13:34;;;;;;;5.15;1.58;;;16.40;99.90;;;;;;4889877;29;38396;-85
2022/09/15 07:16:05;;;;;;;3.92;1.40;;;16.50;99.90;;;;;;4877027;29;38621;-84
2022/09/15 07:18:31;;;;;;;3.95;1.65;;;16.50;99.90;;;;;;4891059;29;49111;-84
2022/09/15 07:21:06;;;;;;;3.42;1.60;;;16.50;99.90;;;;;;4890527;29;37102;-81
2022/09/15 07:23:33;;;;;;;2.85;1.30;;;16.60;99.90;;;;;;4869345;29;47201;-83
2022/09/15 07:26:07;;;;;;;6.05;1.60;;;16.60;99.90;;;;;;4866480;29;38175;-84
2022/09/15 07:28:33;;;;;;;5.03;1.60;;;16.60;99.90;;;;;;4868186;29;47384;-83
2022/09/15 07:30:59;;;;;;;3.65;1.30;;;16.60;99.90;;;;;;4882272;29;37338;-84
2022/09/15 07:33:25;;;;;;;3.47;1.30;;;16.50;99.90;;;;;;4869353;29;39579;-83
2022/09/15 07:35:51;;;;;;;5.65;1.83;;;16.50;99.90;;;;;;4864578;29;38152;-79
2022/09/15 07:38:18;;;;;;;5.22;1.60;;;16.60;99.90;;;;;;4859801;29;37211;-83
2022/09/15 07:40:44;;;;;;;7.32;1.42;;;16.60;99.90;;;;;;4886269;29;37397;-81
2022/09/15 07:43:11;;;;;;;6.47;1.40;;;16.60;99.90;;;;;;4871331;29;37862;-83
2022/09/15 07:45:37;;;;;;;9.02;1.42;;;16.50;99.90;;;;;;4872483;29;39314;-82
2022/09/15 07:48:03;;;;;;;9.48;1.40;;;16.50;99.90;;;;;;4873300;29;39840;-85
2022/09/15 07:50:29;;;;;;;6.32;1.70;;;16.50;99.90;;;;;;4893116;29;36989;-86
2022/09/15 07:52:55;;;;;;;9.02;1.30;;;16.50;99.90;;;;;;4869052;29;39238;-84
2022/09/15 07:55:23;;;;;;;4.13;1.20;;;16.50;99.90;;;;;;4877830;29;39510;-84
2022/09/15 07:57:57;;;;;;;6.07;1.70;;;16.50;99.90;;;;;;4872977;29;39695;-85
2022/09/15 08:00:23;;;;;;;6.72;1.42;;;16.50;99.90;;;;;;4869913;29;37991;-79
2022/09/15 08:02:49;;;;;;;7.40;1.33;;;16.50;99.90;;;;;;4870512;29;39681;-82
2022/09/15 08:05:15;;;;;;;7.18;1.30;;;16.60;99.90;;;;;;4885587;29;38467;-82
2022/09/15 08:07:41;;;;;;;5.95;1.15;;;16.70;99.90;;;;;;4863851;29;38897;-82
2022/09/15 08:10:10;;;;;;;9.43;1.45;;;16.80;99.90;;;;;;4865198;29;38499;-82
2022/09/15 08:12:36;;;;;;;9.27;1.65;;;16.90;99.90;;;;;;4878103;29;38900;-82
2022/09/15 08:15:07;;;;;;;9.18;1.63;;;17.00;99.90;;;;;;4882111;29;39548;-83
2022/09/15 08:17:34;;;;;;;6.80;1.30;;;17.10;99.90;;;;;;4861091;29;38735;-83
2022/09/15 08:20:00;;;;;;;7.68;2.13;;;17.30;99.90;;;;;;4852167;29;38374;-83
2022/09/15 08:22:26;;;;;;;7.55;1.70;;;17.30;99.90;;;;;;4853180;29;39895;-83
2022/09/15 08:24:52;;;;;;;2.92;1.30;;;17.60;99.90;;;;;;4884282;29;38617;-84
2022/09/15 08:27:18;;;;;;;9.95;1.00;;;17.70;99.90;;;;;;4862584;29;39000;-82
2022/09/15 08:29:45;;;;;;;4.82;1.40;;;17.70;99.90;;;;;;4878855;29;36882;-85
2022/09/15 08:32:11;;;;;;;8.07;1.20;;;17.70;99.90;;;;;;4870213;29;39412;-84
2022/09/15 08:34:37;;;;;;;6.78;1.10;;;17.60;99.90;;;;;;4863626;29;39732;-82
2022/09/15 08:37:03;;;;;;;4.75;0.90;;;17.60;99.90;;;;;;4860909;29;39702;-81
2022/09/15 08:39:29;;;;;;;8.40;1.10;;;17.50;99.90;;;;;;4868826;29;39017;-81
2022/09/15 08:41:59;;;;;;;9.98;1.35;;;17.50;99.90;;;;;;4869531;29;39801;-83
2022/09/15 08:44:37;;;;;;;9.55;1.80;;;17.50;99.90;;;;;;4885040;29;39384;-81
2022/09/15 08:47:16;;;;;;;10.52;1.60;;;17.40;99.90;;;;;;4886095;29;38541;-80
2022/09/15 08:50:09;;;;;;;6.15;1.38;;;17.40;99.90;;;;;;4888944;29;37207;-77
2022/09/15 08:52:47;;;;;;;;;;;17.40;99.90;;;;;;4864483;29;46848;-76
2022/09/15 08:55:42;;;;;;;7.60;1.10;;;17.30;99.90;;;;;;4887411;29;40144;-81
2022/09/15 08:58:16;;;;;;;8.82;1.10;;;17.40;99.90;;;;;;4871016;29;39934;-80
2022/09/15 09:00:44;;;;;;;5.32;1.17;;;17.70;99.90;;;;;;4876814;29;37879;-82
2022/09/15 09:03:35;;;;;;;8.63;1.00;;;18.10;99.90;;;;;;4867697;29;39586;-81
2022/09/15 09:06:31;;;;;;;5.65;0.70;;;18.00;99.90;;;;;;4869245;29;37847;-82
2022/09/15 09:09:23;;;;;;;4.35;1.00;;;17.90;99.90;;;;;;4886712;29;48911;-82
2022/09/15 09:12:23;;;;;;;8.30;1.35;;;18.10;99.90;;;;;;4867823;29;47993;-83
2022/09/15 09:15:11;;;;;;;5.70;0.70;;;18.40;99.90;;;;;;4870498;29;47104;-83
2022/09/15 09:17:58;;;;;;;4.95;1.45;;;18.70;99.90;;;;;;4871230;29;47217;-80
2022/09/15 09:20:44;;;;;;;4.80;0.95;;;19.00;99.90;;;;;;4872973;29;37595;-81
2022/09/15 09:23:14;;;;;;;8.48;1.63;;;19.20;99.90;;;;;;4870777;29;36107;-81
2022/09/15 09:25:41;;;;;;;5.93;0.80;;;19.20;99.90;;;;;;4871658;29;37667;-81
2022/09/15 09:28:34;;;;;;;4.15;0.90;;;19.20;99.90;;;;;;4872261;29;37818;-81
2022/09/15 09:31:04;;;;;;;;;;;19.40;99.90;;;;;;4868235;29;39288;-82
2022/09/15 09:33:44;;;;;;;3.17;0.80;;;19.60;99.90;;;;;;4881837;29;48937;-82
2022/09/15 09:36:11;;;;;;;3.88;0.75;;;19.60;99.90;;;;;;4873901;29;38028;-81
2022/09/15 09:38:43;;;;;;;4.53;0.70;;;19.40;99.90;;;;;;4872452;29;38716;-82
2022/09/15 09:41:24;;;;;;;4.28;0.65;;;19.30;99.90;;;;;;4871471;29;38772;-82
2022/09/15 09:43:53;;;;;;;3.73;0.70;;;19.50;99.90;;;;;;4886596;29;37284;-81
2022/09/15 09:46:20;;;;;;;5.35;1.10;;;19.60;99.90;;;;;;4869592;29;38805;-81
2022/09/15 09:48:53;;;;;;;2.40;0.88;;;19.80;99.90;;;;;;4892486;29;39566;-81
2022/09/15 09:51:37;;;;;;;3.13;0.50;;;19.70;99.90;;;;;;4893442;29;39083;-81
2022/09/15 09:54:19;;;;;;;8.52;0.82;;;19.50;99.90;;;;;;4890085;29;37285;-81
2022/09/15 09:56:49;;;;;;;5.40;0.88;;;19.40;99.90;;;;;;4876956;29;38002;-81
2022/09/15 09:59:44;;;;;;;2.67;0.85;;;19.20;99.90;;;;;;4877979;29;39082;-81
2022/09/15 10:02:10;;;;;;;5.30;1.10;;;19.40;99.90;;;;;;4876895;29;39367;-80
2022/09/15 10:04:38;;;;;;;5.90;1.00;;;19.70;99.90;;;;;;4893806;29;36892;-79
2022/09/15 10:07:06;;;;;;;5.60;1.05;;;20.00;99.90;;;;;;4867354;29;39430;-82
2022/09/15 10:09:32;;;;;;;3.03;0.57;;;20.20;99.90;;;;;;4892739;29;38368;-82
2022/09/15 10:12:00;;;;;;;4.43;0.80;;;20.40;99.90;;;;;;4873057;29;36552;-82
2022/09/15 10:14:50;;;;;;;7.70;1.00;;;20.30;99.90;;;;;;4891373;29;38744;-83
2022/09/15 10:17:20;;;;;;;6.13;1.08;;;20.40;99.90;;;;;;4862405;29;39594;-81
2022/09/15 10:19:57;;;;;;;5.32;1.10;;;20.40;99.90;;;;;;4890553;29;39081;-82
2022/09/15 10:22:31;;;;;;;6.82;1.00;;;20.50;99.90;;;;;;4876080;29;38909;-81
2022/09/15 10:24:59;;;;;;;5.97;0.90;;;21.00;99.90;;;;;;4892969;29;37365;-82
2022/09/15 10:27:28;;;;;;;4.90;1.08;;;21.20;99.90;;;;;;4888342;29;38964;-82
2022/09/15 10:29:58;;;;;;;10.48;0.90;;;21.00;99.90;;;;;;4881161;29;39317;-83
2022/09/15 10:32:30;;;;;;;5.38;0.80;;;20.90;99.90;;;;;;4875735;29;39986;-80
2022/09/15 10:35:12;;;;;;;7.57;1.08;;;20.60;99.90;;;;;;4889042;29;37191;-79
2022/09/15 10:37:47;;;;;;;7.22;0.85;;;20.60;99.90;;;;;;4891539;29;48906;-81
2022/09/15 10:40:24;;;;;;;6.75;1.35;;;20.60;99.90;;;;;;4864745;29;40367;-77
2022/09/15 10:43:00;;;;;;;3.58;0.75;;;20.60;99.90;;;;;;4860733;29;39222;-81
2022/09/15 10:45:36;;;;;;;3.92;0.95;;;20.90;99.90;;;;;;4860358;29;37788;-82
2022/09/15 10:48:40;;;;;;;6.50;0.80;;;21.00;99.90;;;;;;4874375;29;39253;-79
2022/09/15 10:51:28;;;;;;;5.78;1.20;;;21.10;99.90;;;;;;4857567;29;39828;-81
2022/09/15 10:54:05;;;;;;;8.13;1.35;;;21.30;99.90;;;;;;4877816;29;37667;-81
2022/09/15 10:56:48;;;;;;;3.45;0.80;;;21.60;99.90;;;;;;4877103;29;48270;-81
2022/09/15 10:59:53;;;;;;;9.07;0.77;;;21.50;99.90;;;;;;4886302;29;39629;-81
2022/09/15 11:02:46;;;;;;;4.00;0.90;;;21.10;99.90;;;;;;4862449;29;40184;-82
2022/09/15 11:05:50;;;;;;;6.05;0.90;;;20.70;99.90;;;;;;4876626;29;39250;-84
2022/09/15 11:08:19;;;;;;;3.38;0.85;;;20.60;99.90;;;;;;4890626;29;38875;-81
2022/09/15 11:10:59;;;;;;;5.45;0.90;;;20.60;99.90;;;;;;4889467;29;38497;-81
2022/09/15 11:13:40;;;;;;;4.38;0.70;;;20.50;99.90;;;;;;4868722;29;40735;-83
2022/09/15 11:16:31;;;;;;;2.30;0.73;;;20.60;99.90;;;;;;4869636;29;39261;-83
2022/09/15 11:19:26;;;;;;;3.60;0.60;;;20.50;99.90;;;;;;4868939;29;37569;-83
2022/09/15 11:22:08;;;;;;;6.55;1.20;;;20.50;99.90;;;;;;4877270;29;46912;-82
2022/09/15 11:24:56;;;;;;;10.60;1.13;;;20.40;99.90;;;;;;4882936;29;47405;-83
2022/09/15 11:27:47;;;;;;;8.85;1.50;;;20.30;99.90;;;;;;4873792;29;40236;-82
2022/09/15 11:30:23;;;;;;;2.50;0.52;;;20.00;99.90;;;;;;4875508;29;37520;-83
2022/09/15 11:33:09;;;;;;;8.30;1.55;;;19.70;99.90;;;;;;4893497;29;39027;-82
2022/09/15 11:35:52;;;;;;;4.20;0.90;;;19.60;99.90;;;;;;4882970;29;48545;-84
2022/09/15 11:38:34;;;;;;;4.72;0.80;;;19.50;99.90;;;;;;4886044;29;39165;-83
2022/09/15 11:41:17;;;;;;;6.47;1.08;;;19.40;99.90;;;;;;4887145;29;37917;-81
2022/09/15 11:44:05;;;;;;;6.95;1.13;;;19.30;99.90;;;;;;4868542;29;47402;-81
2022/09/15 11:46:53;;;;;;;7.63;1.20;;;19.30;99.90;;;;;;4869947;29;47155;-81
2022/09/15 11:49:42;;;;;;;5.95;1.10;;;19.20;99.90;;;;;;4890628;29;39961;-82
2022/09/15 11:52:47;;;;;;;6.47;1.15;;;19.20;99.90;;;;;;4867349;29;38837;-83
2022/09/15 11:55:41;;;;;;;2.65;0.65;;;19.20;99.90;;;;;;4846523;29;38892;-82
2022/09/15 11:58:20;;;;;;;4.68;0.90;;;19.40;99.90;;;;;;4866547;29;39382;-83
2022/09/15 12:01:13;;;;;;;5.95;0.85;;;19.50;99.90;;;;;;4868893;29;39092;-82
2022/09/15 12:03:53;;;;;;;6.18;1.20;;;19.50;99.90;;;;;;4866895;29;46698;-82
2022/09/15 12:06:33;;;;;;;4.28;0.90;;;19.50;99.90;;;;;;4884937;29;40537;-80
2022/09/15 12:09:02;;;;;;;4.97;0.82;;;19.50;99.90;;;;;;4873666;29;39449;-81
2022/09/15 12:11:44;;;;;;;5.90;1.05;;;19.50;99.90;;;;;;4869548;29;47869;-80
2022/09/15 12:14:23;;;;;;;4.60;0.90;;;19.60;99.90;;;;;;4884355;29;37117;-81
2022/09/15 12:16:49;;;;;;;6.00;1.10;;;19.80;99.90;;;;;;4874581;29;39573;-83
2022/09/15 12:19:50;;;;;;;3.58;1.00;;;19.70;99.90;;;;;;4888947;29;38925;-81
2022/09/15 12:22:55;;;;;;;6.53;1.08;;;19.70;99.90;;;;;;4864259;29;39524;-81
2022/09/15 12:25:55;;;;;;;5.53;0.88;;;20.10;99.90;;;;;;4846371;29;37608;-80
2022/09/15 12:28:22;;;;;;;5.05;1.35;;;20.10;99.90;;;;;;4888190;29;39272;-82
2022/09/15 12:31:08;;;;;;;2.33;0.80;;;20.20;99.90;;;;;;4876724;29;38870;-81
2022/09/15 12:33:45;;;;;;;5.72;1.00;;;20.10;99.90;;;;;;4873621;29;48286;-81
2022/09/15 12:36:31;;;;;;;4.68;0.98;;;19.90;99.90;;;;;;4863955;29;38428;-81
2022/09/15 12:38:59;;;;;;;5.07;1.10;;;19.90;99.90;;;;;;4872477;29;39648;-82
2022/09/15 12:41:27;;;;;;;8.57;1.38;;;20.00;99.90;;;;;;4873308;29;39431;-81
2022/09/15 12:44:22;;;;;;;6.57;1.10;;;20.00;99.90;;;;;;4888061;29;38500;-81
2022/09/15 12:46:54;;;;;;;8.75;1.00;;;20.10;99.90;;;;;;4883169;29;48525;-82
2022/09/15 12:49:28;;;;;;;5.30;1.10;;;20.10;99.90;;;;;;4871713;29;37968;-81
2022/09/15 12:51:56;;;;;;;4.10;1.02;;;20.10;99.90;;;;;;4871988;29;37659;-80
2022/09/15 12:54:28;;;;;;;7.28;1.45;;;20.00;99.90;;;;;;4860714;29;39237;-80
2022/09/15 12:56:58;;;;;;;5.43;1.08;;;19.90;99.90;;;;;;4883382;29;37160;-80
2022/09/15 12:59:27;;;;;;;8.68;0.98;;;20.00;99.90;;;;;;4867343;29;39749;-78
2022/09/15 13:01:57;;;;;;;8.20;1.10;;;19.90;99.90;;;;;;4886179;29;40051;-81
2022/09/15 13:04:42;;;;;;;2.83;0.75;;;19.90;99.90;;;;;;4877012;29;38879;-82
2022/09/15 13:07:18;;;;;;;4.60;0.98;;;19.80;99.90;;;;;;4891116;29;20605;-82
2022/09/15 13:09:58;;;;;;;4.60;0.85;;;19.80;99.90;;;;;;4873612;29;38884;-81
2022/09/15 13:12:31;;;;;;;4.45;0.90;;;19.70;99.90;;;;;;4871935;29;39351;-80
2022/09/15 13:15:02;;;;;;;4.18;1.00;;;19.60;99.90;;;;;;4857603;29;37624;-81
2022/09/15 13:17:29;;;;;;;5.07;1.00;;;19.50;99.90;;;;;;4856696;29;47328;-81
2022/09/15 13:20:13;;;;;;;4.45;1.27;;;19.50;99.90;;;;;;4866873;29;38852;-82
2022/09/15 13:22:49;;;;;;;6.97;1.15;;;19.60;99.90;;;;;;4881193;29;49136;-80
2022/09/15 13:25:22;;;;;;;4.75;0.70;;;19.60;99.90;;;;;;4873405;29;37456;-81
2022/09/15 13:27:52;;;;;;;6.00;1.00;;;19.60;99.90;;;;;;4889440;29;37320;-81
2022/09/15 13:30:58;;;;;;;5.57;0.93;;;19.60;99.90;;;;;;4871858;29;38437;-80
2022/09/15 13:33:56;;;;;;;3.28;0.73;;;19.60;99.90;;;;;;4867490;29;39082;-83
2022/09/15 13:36:45;;;;;;;4.75;1.05;;;19.50;99.90;;;;;;4869751;29;37484;-80
2022/09/15 13:39:30;;;;;;;6.53;1.48;;;19.50;99.90;;;;;;4856833;29;37812;-80
2022/09/15 13:42:25;;;;;;;8.52;1.30;;;19.30;99.90;;;;;;4870196;29;37667;-82
2022/09/15 13:45:15;;;;;;;7.43;0.90;;;19.40;99.90;;;;;;4867906;29;46779;-81
2022/09/15 13:47:47;;;;;;;6.70;1.70;;;19.10;99.90;;;;;;4873297;29;47123;-78
2022/09/15 13:50:27;;;;;;;;;;;18.90;99.90;;;;;;4886284;29;37693;-82
2022/09/15 13:53:19;;;;;;;7.68;1.05;;;18.70;99.90;;;;;;4885287;29;39177;-81
2022/09/15 13:55:45;;;;;;;9.97;1.00;;;18.50;99.90;;;;;;4866484;29;47233;-80